Terminal Aerodrome Forecast
Issued by NWS

Home | Current Version | Previous Version | Text Only | Print | Product List | Glossary On
Versions: 1 2 3 4 5 6 7 8 9 10 11 12 13 14 15 16 17
000
FTUS46 KSGX 231700
TAFSNA
TAF
KSNA 231732Z 2318/2418 VRB06KT P6SM FEW010
     FM231900 23008KT P6SM SKC
     FM240200 VRB04KT P6SM SCT007
     FM240900 VRB05KT 5SM BR BKN007
     FM241200 VRB04KT 2SM BR BKN005
     FM241400 VRB05KT 5SM BR FEW007=

USA.gov is the U.S. government's official web portal to all federal, state and local government web resources and services.